createdAt,value
2023-11-24T00:00:31.616Z,6.97
2023-11-24T00:01:31.732Z,6.91
2023-11-24T00:02:31.590Z,6.88
2023-11-24T00:03:31.650Z,6.89
2023-11-24T00:04:31.582Z,6.85
2023-11-24T00:05:31.596Z,6.83
2023-11-24T00:06:31.583Z,6.81
2023-11-24T00:07:31.535Z,6.73
2023-11-24T00:08:31.512Z,6.73
2023-11-24T00:09:31.664Z,6.73
2023-11-24T00:10:31.529Z,6.68
2023-11-24T00:11:31.508Z,6.61
2023-11-24T00:12:31.534Z,6.64
2023-11-24T00:13:31.474Z,6.74
2023-11-24T00:14:31.478Z,6.73
2023-11-24T00:15:31.509Z,6.70
2023-11-24T00:16:31.456Z,6.70
2023-11-24T00:17:31.461Z,6.68
2023-11-24T00:18:31.479Z,6.71
2023-11-24T00:19:31.418Z,6.63
2023-11-24T00:20:31.436Z,6.64
2023-11-24T00:21:31.427Z,6.63
2023-11-24T00:22:31.368Z,6.63
2023-11-24T00:23:31.387Z,6.60
2023-11-24T00:24:32.401Z,6.60
2023-11-24T00:25:31.385Z,6.57
2023-11-24T00:26:31.364Z,6.56
2023-11-24T00:27:31.363Z,6.61
2023-11-24T00:28:31.322Z,6.52
2023-11-24T00:29:31.322Z,6.46
2023-11-24T00:30:31.319Z,6.43
2023-11-24T00:31:31.308Z,6.43
2023-11-24T00:32:31.321Z,6.42
2023-11-24T00:33:31.378Z,6.40
2023-11-24T00:34:31.308Z,6.42
2023-11-24T00:35:31.254Z,6.46
2023-11-24T00:36:31.297Z,6.45
2023-11-24T00:37:31.263Z,6.43
2023-11-24T00:38:31.283Z,6.46
2023-11-24T00:39:31.252Z,6.49
2023-11-24T00:40:31.203Z,6.49
2023-11-24T00:41:31.230Z,6.57
2023-11-24T00:42:31.203Z,6.55
2023-11-24T00:43:31.175Z,6.50
2023-11-24T00:44:31.901Z,6.56
2023-11-24T00:45:31.157Z,6.57
2023-11-24T00:46:31.228Z,6.60
2023-11-24T00:47:31.205Z,6.53
2023-11-24T00:48:31.136Z,6.55
2023-11-24T00:49:31.127Z,6.53
2023-11-24T00:50:31.149Z,6.52
2023-11-24T00:51:31.118Z,6.49
2023-11-24T00:52:31.100Z,6.52
2023-11-24T00:53:31.130Z,6.49
2023-11-24T00:54:31.143Z,6.45
2023-11-24T00:55:31.055Z,6.45
2023-11-24T00:56:31.088Z,6.46
2023-11-24T00:57:31.108Z,6.43
2023-11-24T00:58:31.034Z,6.45
2023-11-24T00:59:31.062Z,6.46
2023-11-24T01:00:31.068Z,6.42
2023-11-24T01:01:31.034Z,6.45
2023-11-24T01:02:31.100Z,6.38
2023-11-24T01:03:31.897Z,6.43
2023-11-24T01:04:31.027Z,6.45
2023-11-24T01:05:31.012Z,6.40
2023-11-24T01:06:30.990Z,6.37
2023-11-24T01:07:30.949Z,6.38
2023-11-24T01:08:30.959Z,6.35
2023-11-24T01:09:30.989Z,6.32
2023-11-24T01:10:30.947Z,6.37
2023-11-24T01:11:30.914Z,6.38
2023-11-24T01:12:30.947Z,6.46
2023-11-24T01:13:30.890Z,6.50
2023-11-24T01:14:33.098Z,6.49
2023-11-24T01:15:30.933Z,6.55
2023-11-24T01:16:30.881Z,6.52
2023-11-24T01:17:30.896Z,6.47
2023-11-24T01:18:30.941Z,6.45
2023-11-24T01:19:30.894Z,6.37
2023-11-24T01:20:30.831Z,6.31
2023-11-24T01:21:30.864Z,6.34
2023-11-24T01:22:30.814Z,6.30
2023-11-24T01:23:30.827Z,6.34
2023-11-24T01:24:30.871Z,6.40
2023-11-24T01:25:30.776Z,6.37
2023-11-24T01:26:30.836Z,6.38
2023-11-24T01:27:30.802Z,6.40
2023-11-24T01:28:30.774Z,6.42
2023-11-24T01:29:30.761Z,6.42
2023-11-24T01:30:30.803Z,6.45
2023-11-24T01:31:30.719Z,6.50
2023-11-24T01:32:30.731Z,6.49
2023-11-24T01:33:30.818Z,6.47
2023-11-24T01:34:30.769Z,6.47
2023-11-24T01:35:30.679Z,6.52
2023-11-24T01:36:30.825Z,6.50
2023-11-24T01:37:30.686Z,6.47
2023-11-24T01:38:30.675Z,6.46
2023-11-24T01:39:30.702Z,6.45
2023-11-24T01:40:30.655Z,6.46
2023-11-24T01:41:30.650Z,6.43
2023-11-24T01:42:30.686Z,6.40
2023-11-24T01:43:30.653Z,6.38
2023-11-24T01:44:30.671Z,6.37
2023-11-24T01:45:30.674Z,6.35
2023-11-24T01:46:30.632Z,6.34
2023-11-24T01:47:30.600Z,6.32
2023-11-24T01:48:30.623Z,6.28
2023-11-24T01:49:30.564Z,6.25
2023-11-24T01:50:30.555Z,6.24
2023-11-24T01:51:30.568Z,6.15
2023-11-24T01:52:30.555Z,6.11
2023-11-24T01:53:30.509Z,6.03
2023-11-24T01:54:30.560Z,5.91
2023-11-24T01:55:30.501Z,5.62
2023-11-24T01:56:30.531Z,5.37
2023-11-24T01:57:30.526Z,5.11
2023-11-24T01:58:30.478Z,5.03
2023-11-24T01:59:30.500Z,4.98
2023-11-24T02:00:30.516Z,4.93
2023-11-24T02:01:30.493Z,4.83
2023-11-24T02:02:30.675Z,4.83
2023-11-24T02:03:30.494Z,4.86
2023-11-24T02:04:30.507Z,4.83
2023-11-24T02:05:30.399Z,4.83
2023-11-24T02:06:30.431Z,4.86
2023-11-24T02:07:30.432Z,4.83
2023-11-24T02:08:30.450Z,4.78
2023-11-24T02:09:30.445Z,4.74
2023-11-24T02:10:30.388Z,4.74
2023-11-24T02:11:30.391Z,4.75
2023-11-24T02:12:30.371Z,4.74
2023-11-24T02:13:30.363Z,4.72
2023-11-24T02:14:30.373Z,4.74
2023-11-24T02:15:30.371Z,4.77
2023-11-24T02:16:30.330Z,4.72
2023-11-24T02:17:30.328Z,4.72
2023-11-24T02:18:30.380Z,4.72
2023-11-24T02:19:30.320Z,4.71
2023-11-24T02:20:30.295Z,4.67
2023-11-24T02:21:30.287Z,4.67
2023-11-24T02:22:30.268Z,4.60
2023-11-24T02:23:30.274Z,4.53
2023-11-24T02:24:30.278Z,4.54
2023-11-24T02:25:30.301Z,4.48
2023-11-24T02:26:30.244Z,4.45
2023-11-24T02:27:30.254Z,4.45
2023-11-24T02:28:30.218Z,4.45
2023-11-24T02:29:30.224Z,4.46
2023-11-24T02:30:30.240Z,4.45
2023-11-24T02:31:30.236Z,4.43
2023-11-24T02:32:30.222Z,4.42
2023-11-24T02:33:30.277Z,4.39
2023-11-24T02:34:30.203Z,4.36
2023-11-24T02:35:30.390Z,4.39
2023-11-24T02:36:30.172Z,4.38
2023-11-24T02:37:30.169Z,4.41
2023-11-24T02:38:30.167Z,4.36
2023-11-24T02:39:30.147Z,4.36
2023-11-24T02:40:30.157Z,4.28
2023-11-24T02:41:30.089Z,4.31
2023-11-24T02:42:30.170Z,4.30
2023-11-24T02:43:30.063Z,4.30
2023-11-24T02:44:30.959Z,4.28
2023-11-24T02:45:30.102Z,4.27
2023-11-24T02:46:30.109Z,4.26
2023-11-24T02:47:30.130Z,4.26
2023-11-24T02:48:30.210Z,4.30
2023-11-24T02:49:30.142Z,4.28
2023-11-24T02:50:30.032Z,4.30
2023-11-24T02:51:30.030Z,4.26
2023-11-24T02:52:29.992Z,4.27
2023-11-24T02:53:30.054Z,4.26
2023-11-24T02:54:30.081Z,4.27
2023-11-24T02:55:29.958Z,4.24
2023-11-24T02:56:30.032Z,4.24
2023-11-24T02:57:29.960Z,4.30
2023-11-24T02:58:29.930Z,4.24
2023-11-24T02:59:29.931Z,4.27
2023-11-24T03:00:30.030Z,4.28
2023-11-24T03:01:30.093Z,4.26
2023-11-24T03:02:30.096Z,4.30
2023-11-24T03:03:30.970Z,4.31
2023-11-24T03:04:30.107Z,4.34
2023-11-24T03:05:29.868Z,4.43
2023-11-24T03:06:29.888Z,4.43
2023-11-24T03:07:29.852Z,4.42
2023-11-24T03:08:29.869Z,4.43
2023-11-24T03:09:29.912Z,4.45
2023-11-24T03:10:29.886Z,4.42
2023-11-24T03:11:29.821Z,4.35
2023-11-24T03:12:29.840Z,4.38
2023-11-24T03:13:29.806Z,4.38
2023-11-24T03:14:29.815Z,4.41
2023-11-24T03:15:29.830Z,4.41
2023-11-24T03:16:29.843Z,4.36
2023-11-24T03:17:29.831Z,4.45
2023-11-24T03:18:29.815Z,4.43
2023-11-24T03:19:29.784Z,4.48
2023-11-24T03:20:29.734Z,4.48
2023-11-24T03:21:30.528Z,4.46
2023-11-24T03:22:29.771Z,4.41
2023-11-24T03:23:30.404Z,4.42
2023-11-24T03:24:29.767Z,4.45
2023-11-24T03:25:29.702Z,4.43
2023-11-24T03:26:29.681Z,4.43
2023-11-24T03:27:29.770Z,4.46
2023-11-24T03:28:29.673Z,4.54
2023-11-24T03:29:29.692Z,4.51
2023-11-24T03:30:29.657Z,4.51
2023-11-24T03:31:29.649Z,4.49
2023-11-24T03:32:29.646Z,4.51
2023-11-24T03:33:29.706Z,4.56
2023-11-24T03:34:29.688Z,4.51
2023-11-24T03:35:29.663Z,4.51
2023-11-24T03:36:29.633Z,4.56
2023-11-24T03:37:29.598Z,4.56
2023-11-24T03:38:29.569Z,4.56
2023-11-24T03:39:29.591Z,4.60
2023-11-24T03:40:29.637Z,4.61
2023-11-24T03:41:29.575Z,4.66
2023-11-24T03:42:30.444Z,4.71
2023-11-24T03:43:29.553Z,4.71
2023-11-24T03:44:29.530Z,4.71
2023-11-24T03:45:29.525Z,4.74
2023-11-24T03:46:29.552Z,4.75
2023-11-24T03:47:29.558Z,4.75
2023-11-24T03:48:29.537Z,4.79
2023-11-24T03:49:29.486Z,4.78
2023-11-24T03:50:29.454Z,4.82
2023-11-24T03:51:29.464Z,4.83
2023-11-24T03:52:29.526Z,4.85
2023-11-24T03:53:29.428Z,4.85
2023-11-24T03:54:29.479Z,4.89
2023-11-24T03:55:29.431Z,4.88
2023-11-24T03:56:29.435Z,4.93
2023-11-24T03:57:29.399Z,4.98
2023-11-24T03:58:29.482Z,4.93
2023-11-24T03:59:29.374Z,4.98
2023-11-24T04:00:29.449Z,4.98
2023-11-24T04:01:29.543Z,4.98
2023-11-24T04:02:29.474Z,4.97
2023-11-24T04:03:29.948Z,5.03
2023-11-24T04:04:29.376Z,5.03
2023-11-24T04:05:29.366Z,5.00
2023-11-24T04:06:29.361Z,4.97
2023-11-24T04:07:29.298Z,4.94
2023-11-24T04:08:29.312Z,4.97
2023-11-24T04:09:29.355Z,4.96
2023-11-24T04:10:29.287Z,4.94
2023-11-24T04:11:29.327Z,4.94
2023-11-24T04:12:29.262Z,4.93
2023-11-24T04:13:29.249Z,4.89
2023-11-24T04:14:29.289Z,4.93
2023-11-24T04:15:29.257Z,4.91
2023-11-24T04:16:29.335Z,4.88
2023-11-24T04:17:29.295Z,4.91
2023-11-24T04:18:29.299Z,4.93
2023-11-24T04:19:29.241Z,4.89
2023-11-24T04:20:29.192Z,4.93
2023-11-24T04:21:29.873Z,4.98
2023-11-24T04:22:29.189Z,5.03
2023-11-24T04:23:29.178Z,5.00
2023-11-24T04:24:29.251Z,5.06
2023-11-24T04:25:29.183Z,5.01
2023-11-24T04:26:29.142Z,5.07
2023-11-24T04:27:29.159Z,5.09
2023-11-24T04:28:29.117Z,5.11
2023-11-24T04:29:29.154Z,5.12
2023-11-24T04:30:29.182Z,5.11
2023-11-24T04:31:29.092Z,5.16
2023-11-24T04:32:29.107Z,5.14
2023-11-24T04:33:29.103Z,5.07
2023-11-24T04:34:29.189Z,5.11
2023-11-24T04:35:29.060Z,5.12
2023-11-24T04:36:29.116Z,5.11
2023-11-24T04:37:29.054Z,5.15
2023-11-24T04:38:29.089Z,5.11
2023-11-24T04:39:29.062Z,5.09
2023-11-24T04:40:29.002Z,5.04
2023-11-24T04:41:29.027Z,4.93
2023-11-24T04:42:29.027Z,4.86
2023-11-24T04:43:28.983Z,4.74
2023-11-24T04:44:28.970Z,4.51
2023-11-24T04:45:28.990Z,4.35
2023-11-24T04:46:29.063Z,4.21
2023-11-24T04:47:28.981Z,4.16
2023-11-24T04:48:28.949Z,3.98
2023-11-24T04:49:28.968Z,3.92
2023-11-24T04:50:28.956Z,3.90
2023-11-24T04:51:28.942Z,3.81
2023-11-24T04:52:28.885Z,3.81
2023-11-24T04:53:28.886Z,3.82
2023-11-24T04:54:28.908Z,3.73
2023-11-24T04:55:28.873Z,3.64
2023-11-24T04:56:28.858Z,3.59
2023-11-24T04:57:28.863Z,3.54
2023-11-24T04:58:28.842Z,3.49
2023-11-24T04:59:29.048Z,3.44
2023-11-24T05:00:28.810Z,3.42
2023-11-24T05:01:30.512Z,3.44
2023-11-24T05:02:28.872Z,3.45
2023-11-24T05:03:28.851Z,3.45
2023-11-24T05:04:28.864Z,3.42
2023-11-24T05:05:28.796Z,3.44
2023-11-24T05:06:28.779Z,3.42
2023-11-24T05:07:28.805Z,3.44
2023-11-24T05:08:28.735Z,3.44
2023-11-24T05:09:28.789Z,3.48
2023-11-24T05:10:28.752Z,3.51
2023-11-24T05:11:28.738Z,3.51
2023-11-24T05:12:28.730Z,3.49
2023-11-24T05:13:28.709Z,3.56
2023-11-24T05:14:28.715Z,3.60
2023-11-24T05:15:28.711Z,3.59
2023-11-24T05:16:28.763Z,3.66
2023-11-24T05:17:28.684Z,3.64
2023-11-24T05:18:28.687Z,3.64
2023-11-24T05:19:28.672Z,3.69
2023-11-24T05:20:28.637Z,3.70
2023-11-24T05:21:28.671Z,3.72
2023-11-24T05:22:28.615Z,3.78
2023-11-24T05:23:28.640Z,3.78
2023-11-24T05:24:28.647Z,3.80
2023-11-24T05:25:28.622Z,3.84
2023-11-24T05:26:28.578Z,3.82
2023-11-24T05:27:28.613Z,3.82
2023-11-24T05:28:28.557Z,3.84
2023-11-24T05:29:28.573Z,3.82
2023-11-24T05:30:28.594Z,3.84
2023-11-24T05:31:28.561Z,3.85
2023-11-24T05:32:28.534Z,3.84
2023-11-24T05:33:28.556Z,3.82
2023-11-24T05:34:28.546Z,3.85
2023-11-24T05:35:28.527Z,3.84
2023-11-24T05:36:28.512Z,3.87
2023-11-24T05:37:28.498Z,3.85
2023-11-24T05:38:28.478Z,3.87
2023-11-24T05:39:28.549Z,3.92
2023-11-24T05:40:28.481Z,3.90
2023-11-24T05:41:28.452Z,3.91
2023-11-24T05:42:28.476Z,3.87
2023-11-24T05:43:28.427Z,3.85
2023-11-24T05:44:28.414Z,3.90
2023-11-24T05:45:28.462Z,3.92
2023-11-24T05:46:28.473Z,3.90
2023-11-24T05:47:28.487Z,3.94
2023-11-24T05:48:28.490Z,3.91
2023-11-24T05:49:28.390Z,3.92
2023-11-24T05:50:28.368Z,3.92
2023-11-24T05:51:28.359Z,3.94
2023-11-24T05:52:28.354Z,3.90
2023-11-24T05:53:28.327Z,3.91
2023-11-24T05:54:28.328Z,3.94
2023-11-24T05:55:28.325Z,3.92
2023-11-24T05:56:28.308Z,3.96
2023-11-24T05:57:28.292Z,3.88
2023-11-24T05:58:28.283Z,3.94
2023-11-24T05:59:31.423Z,3.91
2023-11-24T06:00:28.308Z,3.90
2023-11-24T06:01:28.351Z,3.87
2023-11-24T06:02:28.290Z,3.88
2023-11-24T06:03:28.280Z,3.88
2023-11-24T06:04:28.363Z,3.88
2023-11-24T06:05:28.266Z,3.88
2023-11-24T06:06:28.203Z,3.88
2023-11-24T06:07:28.209Z,3.94
2023-11-24T06:08:28.219Z,3.94
2023-11-24T06:09:28.220Z,3.99
2023-11-24T06:10:28.179Z,3.99
2023-11-24T06:11:28.166Z,4.00
2023-11-24T06:12:28.178Z,4.00
2023-11-24T06:13:28.151Z,4.03
2023-11-24T06:14:28.138Z,4.09
2023-11-24T06:15:28.124Z,4.10
2023-11-24T06:16:28.118Z,4.09
2023-11-24T06:17:28.181Z,4.08
2023-11-24T06:18:28.125Z,4.10
2023-11-24T06:19:28.127Z,4.16
2023-11-24T06:20:28.103Z,4.18
2023-11-24T06:21:28.091Z,4.17
2023-11-24T06:22:28.044Z,4.20
2023-11-24T06:23:28.065Z,4.16
2023-11-24T06:24:28.086Z,4.13
2023-11-24T06:25:28.065Z,4.17
2023-11-24T06:26:28.012Z,4.18
2023-11-24T06:27:28.041Z,4.20
2023-11-24T06:28:27.993Z,4.18
2023-11-24T06:29:28.015Z,4.17
2023-11-24T06:30:27.991Z,4.23
2023-11-24T06:31:27.966Z,4.24
2023-11-24T06:32:27.978Z,4.18
2023-11-24T06:33:28.060Z,4.21
2023-11-24T06:34:28.118Z,4.17
2023-11-24T06:35:27.944Z,4.18
2023-11-24T06:36:27.940Z,4.20
2023-11-24T06:37:27.983Z,4.20
2023-11-24T06:38:27.887Z,4.20
2023-11-24T06:39:27.903Z,4.17
2023-11-24T06:40:27.875Z,4.13
2023-11-24T06:41:27.876Z,4.10
2023-11-24T06:42:27.856Z,4.16
2023-11-24T06:43:27.894Z,4.17
2023-11-24T06:44:27.841Z,4.12
2023-11-24T06:45:27.855Z,4.13
2023-11-24T06:46:27.930Z,4.10
2023-11-24T06:47:27.911Z,4.17
2023-11-24T06:48:27.804Z,4.12
2023-11-24T06:49:27.817Z,4.10
2023-11-24T06:50:27.770Z,4.12
2023-11-24T06:51:27.781Z,4.20
2023-11-24T06:52:27.775Z,4.24
2023-11-24T06:53:27.756Z,4.20
2023-11-24T06:54:27.803Z,4.23
2023-11-24T06:55:27.754Z,4.23
2023-11-24T06:56:27.736Z,4.26
2023-11-24T06:57:27.741Z,4.31
2023-11-24T06:58:27.710Z,4.31
2023-11-24T06:59:27.729Z,4.31
2023-11-24T07:00:27.757Z,4.35
2023-11-24T07:01:27.790Z,4.35
2023-11-24T07:02:27.698Z,4.38
2023-11-24T07:03:27.729Z,4.42
2023-11-24T07:04:27.720Z,4.42
2023-11-24T07:05:27.661Z,4.41
2023-11-24T07:06:27.645Z,4.43
2023-11-24T07:07:27.637Z,4.41
2023-11-24T07:08:27.662Z,4.42
2023-11-24T07:09:27.635Z,4.45
2023-11-24T07:10:27.759Z,4.45
2023-11-24T07:11:27.616Z,4.49
2023-11-24T07:12:27.624Z,4.46
2023-11-24T07:13:27.602Z,4.53
2023-11-24T07:14:27.678Z,4.51
2023-11-24T07:15:27.641Z,4.49
2023-11-24T07:16:27.704Z,4.46
2023-11-24T07:17:27.581Z,4.48
2023-11-24T07:18:27.794Z,4.48
2023-11-24T07:19:27.629Z,4.48
2023-11-24T07:20:27.564Z,4.42
2023-11-24T07:21:27.624Z,4.46
2023-11-24T07:22:27.557Z,4.46
2023-11-24T07:23:27.562Z,4.45
2023-11-24T07:24:27.529Z,4.46
2023-11-24T07:25:27.536Z,4.51
2023-11-24T07:26:27.525Z,4.46
2023-11-24T07:27:29.385Z,4.46
2023-11-24T07:28:27.532Z,4.46
2023-11-24T07:29:27.489Z,4.46
2023-11-24T07:30:27.469Z,4.48
2023-11-24T07:31:27.477Z,4.49
2023-11-24T07:32:27.407Z,4.45
2023-11-24T07:33:27.401Z,4.45
2023-11-24T07:34:27.556Z,4.42
2023-11-24T07:35:27.441Z,4.45
2023-11-24T07:36:27.453Z,4.41
2023-11-24T07:37:27.413Z,4.48
2023-11-24T07:38:27.435Z,4.48
2023-11-24T07:39:27.413Z,4.49
2023-11-24T07:40:27.439Z,4.46
2023-11-24T07:41:27.381Z,4.45
2023-11-24T07:42:27.342Z,4.41
2023-11-24T07:43:27.343Z,4.43
2023-11-24T07:44:27.428Z,4.41
2023-11-24T07:45:27.308Z,4.38
2023-11-24T07:46:27.371Z,4.38
2023-11-24T07:47:28.976Z,4.38
2023-11-24T07:48:27.334Z,4.36
2023-11-24T07:49:27.302Z,4.35
2023-11-24T07:50:27.279Z,4.35
2023-11-24T07:51:27.283Z,4.36
2023-11-24T07:52:27.364Z,4.36
2023-11-24T07:53:27.295Z,4.36
2023-11-24T07:54:27.264Z,4.34
2023-11-24T07:55:27.254Z,4.34
2023-11-24T07:56:27.268Z,4.42
2023-11-24T07:57:27.218Z,4.38
2023-11-24T07:58:27.239Z,4.41
2023-11-24T07:59:27.248Z,4.39
2023-11-24T08:00:27.220Z,4.41
2023-11-24T08:01:27.223Z,4.46
2023-11-24T08:02:27.249Z,4.48
2023-11-24T08:03:27.228Z,4.46
2023-11-24T08:04:27.238Z,4.48
2023-11-24T08:05:27.127Z,4.45
2023-11-24T08:06:27.207Z,4.46
2023-11-24T08:07:27.105Z,4.45
2023-11-24T08:08:27.137Z,4.43
2023-11-24T08:09:27.147Z,4.45
2023-11-24T08:10:27.104Z,4.49
2023-11-24T08:11:27.069Z,4.53
2023-11-24T08:12:27.128Z,4.49
2023-11-24T08:13:27.064Z,4.51
2023-11-24T08:14:27.094Z,4.51
2023-11-24T08:15:27.092Z,4.49
2023-11-24T08:16:27.398Z,4.51
2023-11-24T08:17:27.046Z,4.56
2023-11-24T08:18:27.001Z,4.56
2023-11-24T08:19:27.139Z,4.59
2023-11-24T08:20:27.072Z,4.57
2023-11-24T08:21:27.363Z,4.60
2023-11-24T08:22:26.996Z,4.66
2023-11-24T08:23:27.008Z,4.61
2023-11-24T08:24:27.058Z,4.67
2023-11-24T08:25:26.967Z,4.69
2023-11-24T08:26:27.018Z,4.71
2023-11-24T08:27:26.984Z,4.69
2023-11-24T08:28:26.980Z,4.72
2023-11-24T08:29:27.010Z,4.67
2023-11-24T08:30:26.930Z,4.67
2023-11-24T08:31:26.973Z,4.74
2023-11-24T08:32:26.895Z,4.72
2023-11-24T08:33:26.883Z,4.69
2023-11-24T08:34:27.064Z,4.71
2023-11-24T08:35:26.914Z,4.69
2023-11-24T08:36:26.898Z,4.71
2023-11-24T08:37:26.875Z,4.61
2023-11-24T08:38:27.033Z,4.61
2023-11-24T08:39:26.907Z,4.61
2023-11-24T08:40:26.860Z,4.61
2023-11-24T08:41:35.386Z,4.59
2023-11-24T08:42:26.864Z,4.60
2023-11-24T08:43:26.819Z,4.60
2023-11-24T08:44:26.857Z,4.63
2023-11-24T08:45:26.770Z,4.63
2023-11-24T08:46:26.856Z,4.61
2023-11-24T08:47:26.895Z,4.59
2023-11-24T08:48:26.760Z,4.61
2023-11-24T08:49:26.757Z,4.61
2023-11-24T08:50:26.882Z,4.63
2023-11-24T08:51:26.737Z,4.61
2023-11-24T08:52:26.767Z,4.66
2023-11-24T08:53:26.663Z,4.66
2023-11-24T08:54:26.836Z,4.69
2023-11-24T08:55:26.705Z,4.71
2023-11-24T08:56:26.729Z,4.74
2023-11-24T08:57:26.654Z,4.74
2023-11-24T08:58:26.662Z,4.78
2023-11-24T08:59:27.343Z,4.78
2023-11-24T09:00:26.654Z,4.79
2023-11-24T09:01:26.761Z,4.79
2023-11-24T09:02:26.668Z,4.82
2023-11-24T09:03:26.589Z,4.88
2023-11-24T09:04:26.676Z,4.88
2023-11-24T09:05:26.620Z,4.86
2023-11-24T09:06:26.566Z,4.91
2023-11-24T09:07:26.562Z,4.86
2023-11-24T09:08:26.621Z,4.86
2023-11-24T09:09:26.544Z,4.83
2023-11-24T09:10:26.495Z,4.77
2023-11-24T09:11:26.506Z,4.78
2023-11-24T09:12:26.537Z,4.74
2023-11-24T09:13:26.548Z,4.74
2023-11-24T09:14:26.549Z,4.75
2023-11-24T09:15:26.430Z,4.75
2023-11-24T09:16:26.577Z,4.69
2023-11-24T09:17:26.690Z,4.75
2023-11-24T09:18:26.517Z,4.78
2023-11-24T09:19:26.551Z,4.74
2023-11-24T09:20:26.461Z,4.74
2023-11-24T09:21:26.450Z,4.79
2023-11-24T09:22:26.481Z,4.78
2023-11-24T09:23:26.379Z,4.82
2023-11-24T09:24:26.434Z,4.79
2023-11-24T09:25:26.426Z,4.77
2023-11-24T09:26:26.416Z,4.77
2023-11-24T09:27:26.361Z,4.79
2023-11-24T09:28:26.353Z,4.75
2023-11-24T09:29:26.339Z,4.75
2023-11-24T09:30:26.372Z,4.78
2023-11-24T09:31:26.383Z,4.78
2023-11-24T09:32:26.287Z,4.83
2023-11-24T09:33:26.375Z,4.82
2023-11-24T09:34:27.919Z,4.82
2023-11-24T09:35:26.317Z,4.78
2023-11-24T09:36:26.307Z,4.85
2023-11-24T09:37:26.247Z,4.83
2023-11-24T09:38:26.308Z,4.85
2023-11-24T09:39:26.237Z,4.88
2023-11-24T09:40:26.278Z,4.88
2023-11-24T09:41:26.251Z,4.85
2023-11-24T09:42:26.190Z,4.85
2023-11-24T09:43:26.203Z,4.89
2023-11-24T09:44:26.285Z,4.86
2023-11-24T09:45:26.170Z,4.88
2023-11-24T09:46:29.053Z,4.86
2023-11-24T09:47:26.242Z,4.88
2023-11-24T09:48:26.220Z,4.89
2023-11-24T09:49:26.119Z,4.86
2023-11-24T09:50:27.026Z,4.86
2023-11-24T09:51:26.151Z,4.83
2023-11-24T09:52:26.109Z,4.88
2023-11-24T09:53:26.079Z,4.88
2023-11-24T09:54:26.108Z,4.79
2023-11-24T09:55:27.682Z,4.79
2023-11-24T09:56:26.128Z,4.83
2023-11-24T09:57:26.094Z,4.82
2023-11-24T09:58:26.050Z,4.78
2023-11-24T09:59:26.057Z,4.82
2023-11-24T10:00:26.061Z,4.86
2023-11-24T10:01:26.045Z,4.94
2023-11-24T10:02:26.106Z,4.91
2023-11-24T10:03:26.081Z,4.93
2023-11-24T10:04:26.112Z,4.91
2023-11-24T10:05:25.953Z,4.96
2023-11-24T10:06:25.983Z,4.96
2023-11-24T10:07:25.985Z,4.97
2023-11-24T10:08:25.963Z,4.89
2023-11-24T10:09:26.034Z,4.86
2023-11-24T10:10:26.025Z,4.89
2023-11-24T10:11:25.880Z,4.91
2023-11-24T10:12:25.904Z,4.91
2023-11-24T10:13:25.954Z,4.93
2023-11-24T10:14:25.969Z,4.94
2023-11-24T10:15:25.888Z,4.91
2023-11-24T10:16:26.022Z,4.91
2023-11-24T10:17:25.984Z,4.97
2023-11-24T10:18:25.847Z,5.00
2023-11-24T10:19:25.927Z,5.03
2023-11-24T10:20:25.866Z,5.01
2023-11-24T10:21:30.645Z,5.00
2023-11-24T10:22:25.835Z,5.03
2023-11-24T10:23:25.788Z,5.07
2023-11-24T10:24:25.825Z,5.11
2023-11-24T10:25:25.762Z,5.18
2023-11-24T10:26:25.764Z,5.16
2023-11-24T10:27:25.764Z,5.19
2023-11-24T10:28:26.292Z,5.14
2023-11-24T10:29:25.744Z,5.15
2023-11-24T10:30:25.729Z,5.19
2023-11-24T10:31:25.773Z,5.14
2023-11-24T10:32:25.735Z,5.14
2023-11-24T10:33:35.105Z,5.16
2023-11-24T10:34:25.985Z,5.16
2023-11-24T10:35:25.789Z,5.16
2023-11-24T10:36:25.789Z,5.27
2023-11-24T10:37:25.673Z,5.22
2023-11-24T10:38:25.654Z,5.33
2023-11-24T10:39:25.628Z,5.33
2023-11-24T10:40:25.648Z,5.32
2023-11-24T10:41:25.642Z,5.36
2023-11-24T10:42:25.582Z,5.34
2023-11-24T10:43:25.665Z,5.40
2023-11-24T10:44:25.599Z,5.40
2023-11-24T10:45:25.568Z,5.43
2023-11-24T10:46:25.653Z,5.41
2023-11-24T10:47:25.638Z,5.32
2023-11-24T10:48:25.528Z,5.33
2023-11-24T10:49:25.625Z,5.34
2023-11-24T10:50:25.554Z,5.33
2023-11-24T10:51:26.056Z,5.34
2023-11-24T10:52:25.573Z,5.37
2023-11-24T10:53:26.509Z,5.40
2023-11-24T10:54:25.525Z,5.40
2023-11-24T10:55:25.513Z,5.36
2023-11-24T10:56:25.440Z,5.36
2023-11-24T10:57:25.440Z,5.29
2023-11-24T10:58:25.496Z,5.30
2023-11-24T10:59:25.456Z,5.33
2023-11-24T11:00:25.526Z,5.36
2023-11-24T11:01:25.590Z,5.37
2023-11-24T11:02:25.490Z,5.34
2023-11-24T11:03:25.455Z,5.34
2023-11-24T11:04:25.476Z,5.30
2023-11-24T11:05:25.386Z,5.33
2023-11-24T11:06:25.440Z,5.34
2023-11-24T11:07:25.360Z,5.36
2023-11-24T11:08:25.384Z,5.36
2023-11-24T11:09:25.429Z,5.36
2023-11-24T11:10:25.421Z,5.34
2023-11-24T11:11:25.580Z,5.34
2023-11-24T11:12:25.400Z,5.36
2023-11-24T11:13:25.344Z,5.39
2023-11-24T11:14:25.324Z,5.47
2023-11-24T11:15:25.264Z,5.43
2023-11-24T11:16:25.347Z,5.43
2023-11-24T11:17:25.298Z,5.41
2023-11-24T11:18:25.288Z,5.40
2023-11-24T11:19:25.276Z,5.39
2023-11-24T11:20:25.318Z,5.41
2023-11-24T11:21:25.253Z,5.39
2023-11-24T11:22:25.234Z,5.41
2023-11-24T11:23:25.200Z,5.44
2023-11-24T11:24:25.257Z,5.48
2023-11-24T11:25:25.343Z,5.51
2023-11-24T11:26:25.192Z,5.57
2023-11-24T11:27:25.144Z,5.55
2023-11-24T11:28:25.312Z,5.54
2023-11-24T11:29:25.180Z,5.57
2023-11-24T11:30:25.177Z,5.58
2023-11-24T11:31:25.276Z,5.58
2023-11-24T11:32:26.975Z,5.58
2023-11-24T11:33:25.185Z,5.59
2023-11-24T11:34:25.124Z,5.67
2023-11-24T11:35:25.154Z,5.66
2023-11-24T11:36:25.110Z,5.65
2023-11-24T11:37:25.098Z,5.67
2023-11-24T11:38:27.160Z,5.67
2023-11-24T11:39:25.149Z,5.69
2023-11-24T11:40:25.043Z,5.65
2023-11-24T11:41:25.076Z,5.57
2023-11-24T11:42:25.009Z,5.61
2023-11-24T11:43:25.157Z,5.59
2023-11-24T11:44:27.567Z,5.55
2023-11-24T11:45:24.988Z,5.54
2023-11-24T11:46:25.012Z,5.54
2023-11-24T11:47:25.102Z,5.48
2023-11-24T11:48:25.019Z,5.55
2023-11-24T11:49:25.184Z,5.59
2023-11-24T11:50:24.939Z,5.59
2023-11-24T11:51:24.972Z,5.54
2023-11-24T11:52:25.065Z,5.52
2023-11-24T11:53:24.947Z,5.54
2023-11-24T11:54:24.989Z,5.54
2023-11-24T11:55:25.621Z,5.58
2023-11-24T11:56:24.998Z,5.58
2023-11-24T11:57:24.935Z,5.65
2023-11-24T11:58:24.946Z,5.62
2023-11-24T11:59:24.878Z,5.62
2023-11-24T12:00:24.836Z,5.65
2023-11-24T12:01:24.924Z,5.65
2023-11-24T12:02:25.020Z,5.72
2023-11-24T12:03:24.850Z,5.80
2023-11-24T12:04:24.927Z,5.87
2023-11-24T12:05:24.878Z,5.84
2023-11-24T12:06:24.798Z,5.80
2023-11-24T12:07:24.898Z,5.79
2023-11-24T12:08:24.766Z,5.88
2023-11-24T12:09:24.800Z,5.95
2023-11-24T12:10:24.776Z,6.00
2023-11-24T12:11:24.830Z,5.97
2023-11-24T12:12:24.762Z,6.05
2023-11-24T12:13:24.836Z,6.02
2023-11-24T12:14:24.743Z,6.03
2023-11-24T12:15:24.684Z,6.02
2023-11-24T12:17:24.673Z,6.05
2023-11-24T12:18:24.743Z,6.02
2023-11-24T12:19:24.677Z,5.98
2023-11-24T12:20:24.671Z,6.02
2023-11-24T12:21:24.674Z,5.88
2023-11-24T12:22:24.967Z,5.85
2023-11-24T12:23:24.679Z,5.82
2023-11-24T12:24:24.626Z,5.79
2023-11-24T12:25:24.742Z,5.80
2023-11-24T12:26:24.618Z,5.80
2023-11-24T12:27:24.581Z,5.82
2023-11-24T12:28:24.637Z,5.90
2023-11-24T12:29:24.621Z,5.90
2023-11-24T12:30:24.571Z,5.90
2023-11-24T12:31:24.734Z,5.90
2023-11-24T12:32:24.595Z,5.94
2023-11-24T12:33:24.541Z,5.97
2023-11-24T12:34:24.563Z,5.97
2023-11-24T12:35:24.516Z,5.97
2023-11-24T12:36:24.513Z,6.02
2023-11-24T12:37:25.448Z,6.06
2023-11-24T12:38:24.506Z,6.02
2023-11-24T12:39:24.528Z,6.03
2023-11-24T12:40:24.549Z,6.03
